Time;durP1;ratioP1;P1;durP2;ratioP2;P2;SDS_P1;SDS_P2;PMS_P1;PMS_P2;Temp;Humidity;BMP_temperature;BMP_pressure;BME280_temperature;BME280_humidity;BME280_pressure;Samples;Min_cycle;Max_cycle;Signal;HPM_P1;HPM_P2
2023/01/01 00:00:42;;;;;;;83.47;38.10;;;13.20;99.90;;;13.41;81.66;100719.13;5014848;28;21023;-65
2023/01/01 00:03:09;;;;;;;106.73;48.47;;;13.20;99.90;;;13.41;81.36;100721.75;5013739;28;20663;-64
2023/01/01 00:05:39;;;;;;;83.80;35.73;;;13.20;99.90;;;13.44;81.38;100723.28;5013748;28;21011;-66
2023/01/01 00:08:06;;;;;;;83.73;39.53;;;13.20;99.90;;;13.41;81.04;100729.63;5021866;28;20635;-64
2023/01/01 00:10:33;;;;;;;86.10;39.37;;;13.20;99.90;;;13.42;81.04;100720.78;5009013;28;20669;-64
2023/01/01 00:13:00;;;;;;;62.63;31.30;;;13.20;99.90;;;13.42;80.94;100726.00;5005413;28;20665;-64
2023/01/01 00:15:27;;;;;;;82.67;38.67;;;13.20;99.90;;;13.41;81.06;100728.78;5013570;28;20633;-64
2023/01/01 00:17:56;;;;;;;83.10;37.37;;;13.20;99.90;;;13.40;81.45;100732.34;5012052;28;20997;-65
2023/01/01 00:20:23;;;;;;;65.37;28.40;;;13.20;99.90;;;13.45;81.35;100738.03;5018142;28;20747;-64
2023/01/01 00:22:55;;;;;;;53.87;24.47;;;13.30;99.90;;;13.46;81.14;100737.09;5001276;28;20637;-64
2023/01/01 00:25:24;;;;;;;51.17;21.97;;;13.30;99.90;;;13.48;81.12;100738.63;5013140;28;20617;-65
2023/01/01 00:27:51;;;;;;;38.03;19.57;;;13.30;99.90;;;13.51;80.91;100741.00;5013434;28;20660;-64
2023/01/01 00:30:18;;;;;;;38.93;17.20;;;13.30;99.90;;;13.53;80.60;100746.09;5013220;28;20629;-64
2023/01/01 00:32:45;;;;;;;36.67;18.47;;;13.30;99.90;;;13.58;80.09;100739.53;5013151;28;20744;-63
2023/01/01 00:35:25;;;;;;;38.70;17.97;;;13.40;99.90;;;13.62;80.46;100743.56;5017938;28;21065;-64
2023/01/01 00:37:53;;;;;;;26.37;14.23;;;13.40;99.90;;;13.66;80.31;100734.50;5020710;28;20720;-64
2023/01/01 00:40:20;;;;;;;19.47;7.97;;;13.40;99.90;;;13.70;79.77;100730.66;5012625;28;20693;-64
2023/01/01 00:42:47;;;;;;;8.90;5.00;;;13.50;99.90;;;13.76;79.63;100716.19;5012885;28;20653;-65
2023/01/01 00:45:14;;;;;;;4.67;3.80;;;13.50;99.90;;;13.77;79.18;100716.06;5014045;28;21193;-64
2023/01/01 00:47:51;;;;;;;24.20;8.60;;;13.60;99.90;;;13.82;79.38;100716.50;5012801;28;20708;-64
2023/01/01 00:50:20;;;;;;;7.37;4.80;;;13.60;99.90;;;13.87;79.08;100719.59;5012680;28;20986;-64
2023/01/01 00:52:48;;;;;;;10.70;4.50;;;13.70;99.90;;;13.91;78.73;100715.72;5012944;28;20651;-65
2023/01/01 00:55:15;;;;;;;17.20;8.77;;;13.70;99.90;;;13.94;78.24;100715.50;5013264;28;20669;-65
2023/01/01 00:57:42;;;;;;;9.53;5.90;;;13.70;99.90;;;13.96;78.59;100725.84;5022925;28;20990;-64
2023/01/01 01:00:10;;;;;;;6.37;5.20;;;13.70;99.90;;;13.95;78.78;100719.75;5013587;28;20672;-65
2023/01/01 01:02:37;;;;;;;4.30;3.90;;;13.70;99.90;;;13.95;78.62;100714.50;5012687;28;20645;-65
2023/01/01 01:05:05;;;;;;;12.13;5.77;;;13.80;99.90;;;13.96;78.09;100704.84;5015967;28;20715;-64
2023/01/01 01:07:35;;;;;;;14.20;6.50;;;13.80;99.90;;;14.01;78.31;100711.38;5032799;28;20837;-64
2023/01/01 01:10:01;;;;;;;12.33;5.83;;;13.80;99.90;;;14.01;78.28;100700.88;5014049;28;20617;-65
2023/01/01 01:12:28;;;;;;;2.87;2.63;;;13.80;99.90;;;14.08;78.08;100705.59;5024992;28;20660;-64
2023/01/01 01:14:55;;;;;;;6.17;4.80;;;13.80;99.90;;;14.12;77.73;100701.78;5014518;28;20636;-63
2023/01/01 01:17:23;;;;;;;8.00;5.20;;;13.90;99.90;;;14.17;77.44;100712.69;5011288;28;20637;-64
2023/01/01 01:19:49;;;;;;;5.37;3.77;;;13.90;99.90;;;14.16;77.67;100701.34;5015884;28;20755;-63
2023/01/01 01:22:16;;;;;;;6.60;4.10;;;14.00;99.90;;;14.15;77.80;100706.75;5008873;28;21227;-64
2023/01/01 01:24:50;;;;;;;10.00;5.60;;;13.90;99.90;;;14.14;77.77;100707.72;5008183;28;20629;-64
2023/01/01 01:27:17;;;;;;;10.83;4.67;;;13.90;99.90;;;14.19;77.47;100713.38;5029548;28;20616;-65
2023/01/01 01:29:44;;;;;;;7.27;4.70;;;14.00;99.90;;;14.20;77.56;100713.28;5000289;28;20624;-66
2023/01/01 01:32:11;;;;;;;3.30;1.97;;;14.00;99.90;;;14.26;77.33;100719.78;5017901;28;20711;-64
2023/01/01 01:34:38;;;;;;;6.50;3.50;;;14.00;99.90;;;14.27;77.28;100730.13;5009907;28;20637;-64
2023/01/01 01:37:05;;;;;;;2.97;2.40;;;14.00;99.90;;;14.29;77.20;100732.69;5011627;28;20637;-63
2023/01/01 01:39:32;;;;;;;6.70;4.77;;;14.10;99.90;;;14.32;76.94;100732.41;5010417;28;20609;-65
2023/01/01 01:42:02;;;;;;;3.17;2.87;;;14.10;99.90;;;14.37;76.76;100735.47;5011112;28;20638;-64
2023/01/01 01:44:53;;;;;;;7.73;4.60;;;14.10;99.90;;;14.33;77.00;100740.13;5012062;28;21036;-64
2023/01/01 01:47:46;;;;;;;3.77;3.40;;;14.10;99.90;;;14.32;76.88;100738.50;5010589;28;21263;-63
2023/01/01 01:50:36;;;;;;;4.73;3.57;;;14.10;99.90;;;14.33;76.91;100728.84;4994656;28;20637;-64
2023/01/01 01:53:21;;;;;;;2.50;2.27;;;14.10;99.90;;;14.32;76.91;100737.66;5003254;28;21080;-64
2023/01/01 01:55:53;;;;;;;3.40;2.50;;;14.10;99.90;;;14.29;77.00;100732.69;5020869;28;20629;-64
2023/01/01 01:58:20;;;;;;;1.77;1.67;;;14.00;99.90;;;14.26;77.12;100725.88;5011131;28;21212;-64
2023/01/01 02:00:48;;;;;;;1.60;1.50;;;14.10;99.90;;;14.26;77.21;100722.41;4995634;28;20703;-64
2023/01/01 02:03:26;;;;;;;3.63;1.83;;;14.00;99.90;;;14.26;77.35;100723.25;5010341;28;20644;-65
2023/01/01 02:05:54;;;;;;;4.27;2.00;;;14.00;99.90;;;14.23;77.45;100725.28;5008935;28;20633;-64
2023/01/01 02:08:21;;;;;;;3.90;1.13;;;14.00;99.90;;;14.25;77.10;100733.84;5010497;28;21152;-64
2023/01/01 02:10:48;;;;;;;1.23;1.13;;;14.00;99.90;;;14.29;76.93;100735.31;4992854;28;20639;-64
2023/01/01 02:13:15;;;;;;;2.00;1.80;;;14.00;99.90;;;14.32;76.89;100738.50;5010874;28;20669;-64
2023/01/01 02:15:59;;;;;;;1.47;1.37;;;14.00;99.90;;;14.33;76.68;100729.63;4993424;28;20660;-63
2023/01/01 02:18:40;;;;;;;0.93;0.93;;;14.10;99.90;;;14.32;76.53;100721.91;5010791;28;20632;-63
2023/01/01 02:21:25;;;;;;;2.87;2.57;;;14.10;99.90;;;14.30;76.81;100729.09;5024768;28;20667;-64
2023/01/01 02:24:16;;;;;;;1.93;1.20;;;14.00;99.90;;;14.30;76.68;100729.09;5011826;28;21250;-64
2023/01/01 02:26:56;;;;;;;1.23;1.00;;;14.00;99.90;;;14.28;76.63;100726.56;5011258;28;20988;-63
2023/01/01 02:29:53;;;;;;;1.83;1.70;;;14.00;99.90;;;14.21;76.87;100722.78;4992922;28;21199;-63
2023/01/01 02:32:43;;;;;;;6.27;4.07;;;14.00;99.90;;;14.26;77.22;100717.16;5021214;22;20652;-65
2023/01/01 02:35:37;;;;;;;2.93;1.87;;;14.00;99.90;;;14.27;76.98;100719.63;5005576;28;21239;-65
2023/01/01 02:38:17;;;;;;;3.30;3.00;;;14.00;99.90;;;14.28;77.00;100736.22;5007567;28;20613;-66
2023/01/01 02:40:53;;;;;;;9.50;5.37;;;14.00;99.90;;;14.24;77.22;100737.44;4999758;28;20661;-64
2023/01/01 02:43:20;;;;;;;9.97;5.20;;;14.00;99.90;;;14.19;77.54;100739.63;5012707;28;20649;-64
2023/01/01 02:45:53;;;;;;;8.97;5.70;;;13.90;99.90;;;14.13;77.76;100741.00;5005611;28;21099;-64
2023/01/01 02:48:52;;;;;;;6.50;4.90;;;13.90;99.90;;;14.09;77.22;100739.59;5006227;28;20630;-64
2023/01/01 02:51:21;;;;;;;8.93;5.30;;;13.90;99.90;;;14.06;77.98;100747.72;4989313;28;20729;-64
2023/01/01 02:54:16;;;;;;;7.87;5.20;;;13.90;99.90;;;14.06;78.04;100744.25;4989819;28;20638;-64
2023/01/01 02:57:40;;;;;;;7.30;3.40;;;13.90;99.90;;;14.01;78.08;100744.66;4989322;28;20637;-64
2023/01/01 03:00:27;;;;;;;8.27;4.60;;;13.80;99.90;;;14.02;78.08;100739.28;4989230;28;20978;-64
2023/01/01 03:03:27;;;;;;;5.37;3.50;;;13.80;99.90;;;14.06;78.07;100742.47;4993066;28;21018;-65
2023/01/01 03:06:34;;;;;;;5.93;3.50;;;13.90;99.90;;;14.07;77.81;100743.31;5002581;28;20635;-65
2023/01/01 03:09:20;;;;;;;3.30;3.00;;;13.90;99.90;;;14.09;77.72;100741.38;4979202;28;20697;-65
2023/01/01 03:12:09;;;;;;;1.97;1.87;;;13.80;99.90;;;14.06;78.02;100750.34;4989226;28;20713;-64
2023/01/01 03:14:39;;;;;;;2.93;1.80;;;13.80;99.90;;;14.03;78.06;100743.53;4989672;28;20634;-65
2023/01/01 03:17:25;;;;;;;3.23;2.80;;;13.80;99.90;;;13.99;78.23;100744.78;4990239;28;21232;-64
2023/01/01 03:19:55;;;;;;;3.87;2.77;;;13.80;99.90;;;13.95;78.30;100740.75;4990364;28;20630;-66
2023/01/01 03:22:29;;;;;;;3.63;3.10;;;13.70;99.90;;;13.93;78.78;100747.91;4988841;28;20717;-64
2023/01/01 03:25:11;;;;;;;3.33;3.03;;;13.70;99.90;;;13.92;78.25;100751.50;4990099;28;20626;-64
2023/01/01 03:28:01;;;;;;;4.13;2.43;;;13.70;99.90;;;13.89;78.73;100751.75;4992519;28;20705;-64
2023/01/01 03:30:30;;;;;;;2.47;2.27;;;13.60;99.90;;;13.83;79.06;100752.28;5000860;28;21189;-64
2023/01/01 03:33:07;;;;;;;2.63;2.43;;;13.60;99.90;;;13.76;79.57;100751.09;5011563;28;20653;-65
2023/01/01 03:35:49;;;;;;;5.73;3.50;;;13.60;99.90;;;13.74;79.56;100747.78;4991495;28;20629;-64
2023/01/01 03:38:34;;;;;;;2.30;2.10;;;13.50;99.90;;;13.70;79.70;100756.88;4988544;28;20990;-65
2023/01/01 03:41:44;;;;;;;2.37;1.87;;;13.50;99.90;;;13.68;79.59;100758.78;4993317;28;20666;-64
2023/01/01 03:44:46;;;;;;;2.03;1.77;;;13.50;99.90;;;13.63;79.94;100760.94;4992466;28;20668;-65
2023/01/01 03:47:13;;;;;;;5.67;2.27;;;13.40;99.90;;;13.59;80.34;100756.06;4992068;28;20624;-65
2023/01/01 03:49:41;;;;;;;9.50;3.13;;;13.30;99.90;;;13.56;80.40;100753.72;4989817;28;20677;-65
2023/01/01 03:52:26;;;;;;;1.80;1.67;;;13.30;99.90;;;13.53;80.19;100765.28;4990008;28;20634;-64
2023/01/01 03:55:22;;;;;;;7.27;4.17;;;13.30;99.90;;;13.52;80.66;100763.63;5019957;28;20628;-64
2023/01/01 03:58:24;;;;;;;5.80;3.40;;;13.30;99.90;;;13.50;80.63;100765.53;5001229;28;20642;-65
2023/01/01 04:01:09;;;;;;;7.13;3.40;;;13.30;99.90;;;13.46;80.90;100756.25;4995700;28;20666;-64
2023/01/01 04:03:38;;;;;;;1.43;1.10;;;13.20;99.90;;;13.45;80.82;100759.00;4974213;28;20685;-65
2023/01/01 04:06:06;;;;;;;8.80;4.13;;;13.20;99.90;;;13.41;81.51;100766.31;4992468;28;20641;-64
2023/01/01 04:08:34;;;;;;;5.30;3.00;;;13.20;99.90;;;13.38;81.57;100766.53;4988458;28;20643;-65
2023/01/01 04:13:56;;;;;;;2.87;1.33;;;13.10;99.90;;;13.33;81.49;100758.22;4984837;28;21237;-65
2023/01/01 04:16:22;;;;;;;5.23;3.27;;;13.10;99.90;;;13.30;81.55;100747.16;4992412;28;20630;-64
2023/01/01 04:18:50;;;;;;;1.63;1.53;;;13.10;99.90;;;13.28;82.18;100755.16;4992224;28;21014;-65
2023/01/01 04:21:16;;;;;;;1.90;1.67;;;13.00;99.90;;;13.29;81.76;100750.75;4993161;28;20658;-65
2023/01/01 04:23:43;;;;;;;9.13;3.50;;;13.00;99.90;;;13.32;81.59;100764.41;4992298;28;20732;-64
2023/01/01 04:26:14;;;;;;;2.77;2.00;;;13.10;99.90;;;13.35;81.37;100764.19;4993600;28;20618;-64
2023/01/01 04:28:42;;;;;;;3.40;2.80;;;13.10;99.90;;;13.37;81.22;100766.69;4991299;28;20638;-65
2023/01/01 04:31:09;;;;;;;3.50;1.90;;;13.10;99.90;;;13.34;82.05;100759.88;4995614;28;20638;-64
2023/01/01 04:33:36;;;;;;;5.03;3.17;;;13.10;99.90;;;13.31;81.84;100770.59;4991889;28;21255;-65
2023/01/01 04:36:08;;;;;;;3.53;2.20;;;13.10;99.90;;;13.31;81.21;100770.59;4992844;28;21206;-64
2023/01/01 04:38:37;;;;;;;4.67;3.10;;;13.10;99.90;;;13.31;81.15;100773.22;4992047;28;20630;-65
2023/01/01 04:41:04;;;;;;;3.87;3.07;;;13.10;99.90;;;13.29;81.35;100774.34;4991400;28;21276;-64
2023/01/01 04:43:31;;;;;;;4.90;2.83;;;13.10;99.90;;;13.29;81.86;100787.44;4992905;28;20649;-65
2023/01/01 04:46:01;;;;;;;6.27;3.47;;;13.00;99.90;;;13.27;81.57;100784.09;4990956;28;21014;-65
2023/01/01 04:48:30;;;;;;;6.63;3.23;;;13.00;99.90;;;13.25;81.11;100794.69;4993016;28;20622;-65
2023/01/01 04:51:00;;;;;;;5.47;3.60;;;13.00;99.90;;;13.23;81.71;100791.34;4993670;28;20642;-65
2023/01/01 04:53:33;;;;;;;4.87;3.27;;;13.00;99.90;;;13.19;81.60;100788.16;4991357;28;20781;-64
2023/01/01 04:56:08;;;;;;;8.47;3.40;;;13.00;99.90;;;13.17;81.37;100795.31;4991876;28;21214;-65
2023/01/01 04:58:37;;;;;;;2.37;1.97;;;12.90;99.90;;;13.16;81.60;100800.69;4991171;28;20637;-65
2023/01/01 05:01:05;;;;;;;4.63;2.00;;;12.90;99.90;;;13.12;81.86;100802.69;5006959;28;20655;-64
2023/01/01 05:03:32;;;;;;;3.00;2.40;;;12.90;99.90;;;13.14;81.96;100807.81;4991203;28;21121;-65
2023/01/01 05:06:06;;;;;;;4.37;3.20;;;12.90;99.90;;;13.16;81.36;100806.75;4990367;28;20638;-65
2023/01/01 05:08:36;;;;;;;3.87;2.80;;;12.90;99.90;;;13.15;81.66;100809.50;4991979;28;20611;-65
2023/01/01 05:11:27;;;;;;;4.20;2.93;;;12.90;99.90;;;13.14;81.26;100816.50;4990637;28;20638;-65
2023/01/01 05:13:58;;;;;;;3.03;2.73;;;12.90;99.90;;;13.12;81.62;100814.97;4992609;28;20646;-65
2023/01/01 05:16:29;;;;;;;4.67;2.43;;;12.90;99.90;;;13.12;81.56;100818.41;4993183;28;20644;-65
2023/01/01 05:18:57;;;;;;;3.37;2.37;;;13.00;99.90;;;13.12;81.52;100820.19;4990996;28;20688;-65
2023/01/01 05:21:32;;;;;;;3.80;2.60;;;12.90;99.90;;;13.09;81.04;100818.69;4986342;28;20682;-64
2023/01/01 05:24:03;;;;;;;0.80;0.80;;;12.90;99.90;;;13.10;80.88;100816.88;4990956;28;20650;-64
2023/01/01 05:26:34;;;;;;;5.80;3.00;;;12.90;99.90;;;13.07;80.84;100815.34;4991344;28;20627;-64
2023/01/01 05:29:02;;;;;;;2.57;1.97;;;12.90;99.90;;;13.10;81.42;100822.09;4998795;28;20634;-65
2023/01/01 05:31:33;;;;;;;5.47;3.53;;;12.90;99.90;;;13.12;80.78;100828.06;4991493;28;20984;-65
2023/01/01 05:34:01;;;;;;;3.60;2.80;;;12.90;99.90;;;13.11;80.52;100824.63;4992315;28;20693;-65
2023/01/01 05:36:37;;;;;;;1.93;1.43;;;12.90;99.90;;;13.15;80.74;100831.28;4991090;28;20721;-64
2023/01/01 05:39:06;;;;;;;2.43;2.23;;;12.90;99.90;;;13.13;80.39;100829.75;4991542;28;20643;-64
2023/01/01 05:41:35;;;;;;;2.20;2.00;;;12.90;99.90;;;13.11;80.78;100814.16;4989118;28;20670;-65
2023/01/01 05:44:05;;;;;;;2.60;2.40;;;12.90;99.90;;;13.14;80.29;100828.78;4991459;28;20673;-64
2023/01/01 05:46:32;;;;;;;4.57;2.80;;;12.90;99.90;;;13.11;80.41;100829.88;4993067;28;20630;-64
2023/01/01 05:48:59;;;;;;;4.03;2.40;;;12.90;99.90;;;13.10;80.29;100843.06;5002009;28;20630;-64
2023/01/01 05:51:28;;;;;;;6.37;2.80;;;12.90;99.90;;;13.08;80.25;100842.34;4989503;28;20638;-65
2023/01/01 05:53:56;;;;;;;3.53;2.17;;;12.90;99.90;;;13.06;80.62;100850.34;4991172;28;20693;-64
2023/01/01 05:56:23;;;;;;;5.90;1.60;;;12.90;99.90;;;13.04;80.28;100860.13;4980293;28;20661;-64
2023/01/01 05:58:50;;;;;;;6.33;2.47;;;12.90;99.90;;;13.06;80.05;100859.97;4990344;28;20630;-65
2023/01/01 06:01:23;;;;;;;2.17;1.70;;;12.80;99.90;;;13.05;80.28;100853.09;4990694;28;20669;-64
2023/01/01 06:03:52;;;;;;;2.40;2.17;;;12.80;99.90;;;13.03;80.03;100854.97;4991668;28;20678;-64
2023/01/01 06:06:24;;;;;;;4.10;2.87;;;12.80;99.90;;;13.00;79.33;100856.03;5005410;28;20662;-65
2023/01/01 06:09:03;;;;;;;3.20;2.37;;;12.80;99.90;;;12.99;79.84;100864.03;4990520;28;20619;-65
2023/01/01 06:11:31;;;;;;;1.30;1.20;;;12.80;99.90;;;13.01;79.33;100867.34;5002177;28;20657;-65
2023/01/01 06:14:00;;;;;;;2.33;2.10;;;12.80;99.90;;;13.01;79.69;100862.13;5009051;28;20663;-64
2023/01/01 06:16:29;;;;;;;1.97;1.87;;;12.80;99.90;;;12.98;79.44;100859.72;4989973;28;20643;-65
2023/01/01 06:18:56;;;;;;;2.30;2.10;;;12.80;99.90;;;12.96;79.42;100870.34;4987194;28;20853;-65
2023/01/01 06:21:25;;;;;;;0.70;0.60;;;12.80;99.90;;;12.90;80.20;100859.50;4990189;28;20662;-64
2023/01/01 06:23:55;;;;;;;2.70;1.43;;;12.70;99.90;;;12.92;79.61;100857.59;4989398;28;20658;-64
2023/01/01 06:26:28;;;;;;;1.77;1.67;;;12.70;99.90;;;12.93;79.62;100872.34;4990830;28;21236;-64
2023/01/01 06:28:56;;;;;;;3.33;2.03;;;12.70;99.90;;;12.92;79.41;100878.53;4990601;28;21221;-64
2023/01/01 06:31:23;;;;;;;5.97;2.00;;;12.70;99.90;;;12.88;79.57;100883.19;4991042;28;20692;-64
2023/01/01 06:33:50;;;;;;;2.40;2.10;;;12.70;99.90;;;12.84;79.65;100884.34;4990104;28;20844;-64
2023/01/01 06:36:21;;;;;;;1.17;0.90;;;12.60;99.90;;;12.80;80.16;100887.34;4992477;28;20646;-64
2023/01/01 06:38:52;;;;;;;2.00;1.80;;;12.60;99.90;;;12.78;79.54;100886.59;4997145;28;20642;-64
2023/01/01 06:41:25;;;;;;;3.43;1.70;;;12.60;99.90;;;12.79;79.72;100880.44;4987923;28;20665;-65
2023/01/01 06:43:54;;;;;;;2.60;1.70;;;12.60;99.90;;;12.78;79.80;100881.38;4990259;28;20658;-65
2023/01/01 06:46:27;;;;;;;2.53;2.30;;;12.60;99.90;;;12.73;79.93;100881.75;4990393;28;20622;-65
2023/01/01 06:49:00;;;;;;;1.60;1.47;;;12.50;99.90;;;12.67;80.28;100890.06;4989973;28;20661;-64
2023/01/01 06:51:35;;;;;;;2.57;2.00;;;12.50;99.90;;;12.65;80.32;100896.38;4986885;28;20767;-64
2023/01/01 06:54:04;;;;;;;2.60;2.10;;;12.40;99.90;;;12.63;80.43;100896.47;4991085;28;20653;-64
2023/01/01 06:56:32;;;;;;;3.37;2.43;;;12.40;99.90;;;12.61;79.77;100910.63;4989421;28;20993;-65
2023/01/01 06:58:59;;;;;;;2.97;0.93;;;12.40;99.90;;;12.60;80.05;100916.84;4990472;28;20630;-64
2023/01/01 07:01:30;;;;;;;3.00;2.10;;;12.40;99.90;;;12.57;79.81;100914.44;4994338;28;20661;-64
2023/01/01 07:03:58;;;;;;;1.43;1.33;;;12.40;99.90;;;12.56;79.76;100918.00;4999716;28;20642;-64
2023/01/01 07:06:26;;;;;;;3.60;2.00;;;12.40;99.90;;;12.55;80.35;100922.41;4995167;28;20633;-64
2023/01/01 07:08:53;;;;;;;1.73;1.57;;;12.30;99.90;;;12.55;80.36;100919.78;4993548;28;20614;-64
2023/01/01 07:11:20;;;;;;;2.03;1.80;;;12.40;99.90;;;12.54;80.09;100922.53;4993328;28;20645;-64
2023/01/01 07:13:47;;;;;;;1.87;1.70;;;12.30;99.90;;;12.57;79.88;100920.50;4994409;28;20704;-65
2023/01/01 07:16:14;;;;;;;1.67;1.57;;;12.40;99.90;;;12.58;80.08;100918.72;4993724;28;20633;-65
2023/01/01 07:18:41;;;;;;;1.73;1.63;;;12.40;99.90;;;12.55;80.00;100919.78;4994378;28;20641;-64
2023/01/01 07:21:31;;;;;;;1.87;1.70;;;12.40;99.90;;;12.58;79.36;100923.97;4993463;28;21189;-65
2023/01/01 07:24:04;;;;;;;1.93;1.83;;;12.40;99.90;;;12.57;79.63;100930.13;4992872;28;20657;-65
2023/01/01 07:26:32;;;;;;;2.70;1.80;;;12.40;99.90;;;12.57;79.64;100935.38;5008155;28;21009;-64
2023/01/01 07:29:00;;;;;;;2.10;1.90;;;12.40;99.90;;;12.61;79.11;100942.03;5001439;28;20634;-65
2023/01/01 07:31:40;;;;;;;1.83;1.30;;;12.50;99.90;;;12.61;79.18;100936.81;4999071;28;20621;-65
2023/01/01 07:34:12;;;;;;;1.67;1.57;;;12.40;99.90;;;12.65;79.04;100944.31;5002525;28;21031;-65
2023/01/01 07:36:40;;;;;;;1.40;1.30;;;12.50;99.90;;;12.70;78.62;100944.81;4987959;28;21207;-65
2023/01/01 07:39:07;;;;;;;5.20;2.60;;;12.50;99.90;;;12.71;78.04;100949.13;5013034;28;20640;-64
2023/01/01 07:41:34;;;;;;;2.43;2.07;;;12.50;99.90;;;12.73;78.43;100955.06;5002942;28;20736;-64
2023/01/01 07:44:00;;;;;;;1.80;1.70;;;12.60;99.90;;;12.78;77.94;100952.06;5016325;28;20711;-65
2023/01/01 07:46:28;;;;;;;2.40;1.63;;;12.60;99.90;;;12.82;78.26;100966.63;4992672;28;20688;-63
2023/01/01 07:48:55;;;;;;;2.60;1.50;;;12.70;99.90;;;12.88;77.32;100974.84;4992806;28;20654;-65
2023/01/01 07:51:22;;;;;;;2.10;1.50;;;12.70;99.90;;;12.94;77.48;100977.00;4995671;28;20672;-65
2023/01/01 07:53:49;;;;;;;1.73;1.53;;;12.80;99.90;;;12.94;77.09;100968.31;4991483;28;20643;-65
2023/01/01 07:56:17;;;;;;;1.77;1.70;;;12.80;99.90;;;13.00;76.69;100978.31;4993061;28;20626;-64
2023/01/01 07:58:43;;;;;;;3.27;1.43;;;12.80;99.90;;;13.05;76.55;100984.88;4992643;28;20636;-64
2023/01/01 08:01:13;;;;;;;1.27;1.03;;;12.90;99.90;;;13.08;75.92;100989.91;4993458;28;21001;-64
2023/01/01 08:03:40;;;;;;;3.77;1.60;;;12.90;99.90;;;13.18;76.38;101000.53;4991968;28;20654;-64
2023/01/01 08:06:09;;;;;;;1.50;1.40;;;13.00;99.90;;;13.23;75.90;100995.75;4992239;28;21241;-65
2023/01/01 08:08:37;;;;;;;1.47;1.37;;;13.00;99.90;;;13.31;75.61;100990.75;4993436;28;20645;-65
2023/01/01 08:11:04;;;;;;;2.83;1.63;;;13.10;99.90;;;13.36;74.85;100985.16;5007439;28;20649;-64
2023/01/01 08:13:31;;;;;;;2.30;1.43;;;13.20;99.90;;;13.45;74.17;100980.03;4999521;28;20712;-64
2023/01/01 08:15:58;;;;;;;1.10;1.10;;;13.30;99.90;;;13.59;73.92;100979.78;4992571;28;20639;-64
2023/01/01 08:18:25;;;;;;;2.30;1.93;;;13.40;99.90;;;13.73;73.49;100984.78;4984766;28;20737;-65
2023/01/01 08:20:53;;;;;;;1.23;1.23;;;13.60;99.90;;;13.91;72.32;100983.28;4990098;28;20623;-65
2023/01/01 08:23:19;;;;;;;3.70;1.70;;;13.80;99.90;;;14.15;71.62;100990.97;4991438;28;21151;-64
2023/01/01 08:25:46;;;;;;;1.60;1.50;;;13.90;99.90;;;14.53;70.04;100988.72;4993558;28;20630;-65
2023/01/01 08:28:13;;;;;;;1.80;1.70;;;14.30;99.90;;;14.97;68.31;100979.72;4992184;28;20622;-64
2023/01/01 08:30:40;;;;;;;1.70;0.90;;;14.80;99.90;;;15.42;66.03;100980.22;4988184;28;20684;-65
2023/01/01 08:33:07;;;;;;;1.50;1.40;;;15.20;99.90;;;15.84;64.60;100992.31;4993203;28;20658;-65
2023/01/01 08:35:39;;;;;;;2.40;1.50;;;15.70;99.90;;;16.19;63.97;100997.06;4992498;28;20648;-65
2023/01/01 08:38:09;;;;;;;1.50;1.40;;;16.00;99.90;;;16.34;62.91;100998.31;4988345;28;20655;-65
2023/01/01 08:40:36;;;;;;;2.30;1.77;;;16.20;99.90;;;16.49;62.27;101002.19;4990953;28;21191;-66
2023/01/01 08:43:03;;;;;;;2.37;1.70;;;16.40;99.90;;;16.78;60.88;101007.50;4994660;28;20682;-67
2023/01/01 08:45:30;;;;;;;1.50;1.40;;;16.70;99.90;;;17.20;59.67;101007.94;4984921;28;20630;-66
2023/01/01 08:47:57;;;;;;;1.57;1.57;;;17.10;99.90;;;17.67;58.65;101013.06;4991331;28;20689;-65
2023/01/01 08:50:24;;;;;;;2.10;1.90;;;17.60;99.90;;;18.00;57.39;101014.25;4990847;28;20630;-65
2023/01/01 08:52:50;;;;;;;2.80;1.70;;;18.00;99.90;;;18.08;56.75;101006.41;4984685;28;21350;-64
2023/01/01 08:55:17;;;;;;;5.00;1.97;;;18.10;99.90;;;17.99;56.83;101002.06;4991651;28;20633;-66
2023/01/01 08:57:44;;;;;;;1.60;1.33;;;18.10;99.90;;;17.61;57.63;101007.53;4990937;28;20645;-65
2023/01/01 09:00:12;;;;;;;1.20;1.17;;;17.80;99.90;;;17.37;58.24;101020.38;4991082;28;20650;-66
2023/01/01 09:02:39;;;;;;;5.70;1.53;;;17.50;99.90;;;17.18;58.85;101016.00;4984123;28;20684;-65
2023/01/01 09:05:07;;;;;;;3.23;2.00;;;17.30;99.90;;;17.04;59.10;101029.63;4992185;28;20622;-65
2023/01/01 09:07:34;;;;;;;1.43;1.33;;;17.10;99.90;;;16.99;59.18;101027.41;4991686;28;20634;-65
2023/01/01 09:10:01;;;;;;;1.40;1.30;;;17.00;99.90;;;16.85;59.70;101030.50;4991804;28;21280;-65
2023/01/01 09:12:28;;;;;;;2.87;1.30;;;16.90;99.90;;;16.69;60.14;101032.03;4997669;28;20677;-66
2023/01/01 09:14:55;;;;;;;3.10;1.33;;;16.70;99.90;;;16.47;60.85;101033.13;4991709;28;21221;-64
2023/01/01 09:17:22;;;;;;;3.40;1.50;;;16.40;99.90;;;16.27;61.90;101034.06;4991601;28;20634;-65
2023/01/01 09:19:49;;;;;;;3.27;1.30;;;16.20;99.90;;;16.17;62.04;101044.59;4991780;28;20660;-65
2023/01/01 09:22:15;;;;;;;0.87;0.87;;;16.10;99.90;;;16.16;62.05;101044.72;4992612;28;20666;-65
2023/01/01 09:24:42;;;;;;;0.67;0.67;;;16.00;99.90;;;16.14;62.05;101044.03;4993327;28;21002;-65
2023/01/01 09:27:09;;;;;;;2.77;1.80;;;16.00;99.90;;;16.15;62.15;101050.94;4990151;28;20623;-65
2023/01/01 09:29:36;;;;;;;1.43;1.40;;;16.00;99.90;;;16.19;62.53;101058.44;4991666;28;20630;-65
2023/01/01 09:32:03;;;;;;;1.83;1.60;;;16.00;99.90;;;16.22;62.34;101055.56;4992192;28;20623;-65
2023/01/01 09:34:30;;;;;;;0.90;0.90;;;16.00;99.90;;;16.25;62.55;101057.06;4997142;28;20652;-66
2023/01/01 09:36:57;;;;;;;5.67;1.60;;;16.10;99.90;;;16.23;62.63;101061.63;4991844;28;20619;-64
2023/01/01 09:39:24;;;;;;;0.80;0.80;;;16.00;99.90;;;16.23;62.84;101065.09;4984568;28;20634;-65
2023/01/01 09:42:32;;;;;;;3.60;1.90;;;16.10;99.90;;;16.28;62.42;101067.34;4984944;28;20701;-65
2023/01/01 09:45:14;;;;;;;4.30;1.33;;;16.10;99.90;;;16.24;62.59;101065.94;4977663;28;20656;-66
2023/01/01 09:47:50;;;;;;;1.07;1.07;;;16.00;99.90;;;16.22;62.70;101063.44;4990938;28;20637;-65
2023/01/01 09:50:22;;;;;;;1.33;1.23;;;16.00;99.90;;;16.22;62.88;101065.25;5012475;28;20671;-66
2023/01/01 09:52:56;;;;;;;1.40;1.33;;;16.00;99.90;;;16.27;62.61;101063.84;4990747;28;21248;-65
2023/01/01 09:55:41;;;;;;;3.60;1.10;;;16.10;99.90;;;16.36;62.14;101069.25;4983528;28;20679;-66
2023/01/01 09:58:10;;;;;;;1.77;1.20;;;16.10;99.90;;;16.37;62.33;101063.88;4990020;28;20634;-65
2023/01/01 10:00:45;;;;;;;0.40;0.40;;;16.20;99.90;;;16.38;62.13;101065.53;4989437;28;20630;-65
2023/01/01 10:03:50;;;;;;;1.03;0.93;;;16.20;99.90;;;16.41;62.32;101067.91;4991331;28;21046;-65
2023/01/01 10:06:27;;;;;;;1.67;1.30;;;16.20;99.90;;;16.46;62.06;101056.97;4985023;28;20635;-66
2023/01/01 10:09:15;;;;;;;0.40;0.40;;;16.20;99.90;;;16.46;61.66;101060.41;4988877;28;20634;-65
2023/01/01 10:12:15;;;;;;;3.67;1.50;;;16.30;99.90;;;16.43;61.62;101044.91;4990691;28;20669;-65
2023/01/01 10:14:53;;;;;;;0.40;0.40;;;16.20;99.90;;;16.37;61.76;101055.16;5005864;28;20633;-66
2023/01/01 10:17:40;;;;;;;0.63;0.63;;;16.20;99.90;;;16.37;61.97;101047.25;4987864;28;20638;-66
2023/01/01 10:20:21;;;;;;;1.43;1.23;;;16.20;99.90;;;16.27;62.56;101058.59;4987897;28;20975;-66
2023/01/01 10:22:55;;;;;;;5.80;1.63;;;16.10;99.90;;;16.24;62.29;101053.63;5005656;28;21110;-65
2023/01/01 10:25:26;;;;;;;1.40;0.70;;;16.00;99.90;;;16.24;62.68;101050.16;5003723;28;20666;-65
2023/01/01 10:27:59;;;;;;;0.93;0.40;;;16.00;99.90;;;16.31;62.54;101040.75;4990637;28;20626;-68
2023/01/01 10:30:28;;;;;;;5.20;1.50;;;16.10;99.90;;;16.39;62.06;101045.31;5004201;28;20716;-66
2023/01/01 10:32:56;;;;;;;1.13;1.13;;;16.10;99.90;;;16.41;62.10;101046.84;4990575;28;20661;-65
2023/01/01 10:35:38;;;;;;;4.90;1.33;;;16.20;99.90;;;16.46;62.53;101043.78;4993312;28;20637;-67